Time;durP1;ratioP1;P1;durP2;ratioP2;P2;SDS_P1;SDS_P2;PMS_P1;PMS_P2;Temp;Humidity;BMP_temperature;BMP_pressure;BME280_temperature;BME280_humidity;BME280_pressure;Samples;Min_cycle;Max_cycle;Signal;HPM_P1;HPM_P2
2021/03/14 00:00:52;;;;;;;0.37;0.20;;;4.30;99.90;;;;;;1922162;73;21102;-73
2021/03/14 00:03:18;;;;;;;2.98;0.42;;;4.30;99.90;;;;;;1926125;73;21203;-72
2021/03/14 00:05:45;;;;;;;0.55;0.30;;;4.30;99.90;;;;;;1916170;73;21089;-73
2021/03/14 00:08:11;;;;;;;0.33;0.33;;;4.30;99.90;;;;;;1911307;73;21086;-73
2021/03/14 00:10:39;;;;;;;0.20;0.20;;;4.30;99.90;;;;;;1893023;75;21166;-72
2021/03/14 00:13:06;;;;;;;0.10;0.10;;;4.40;99.90;;;;;;1928424;73;21313;-73
2021/03/14 00:15:32;;;;;;;0.50;0.35;;;4.30;99.90;;;;;;1891586;74;21090;-73
2021/03/14 00:17:58;;;;;;;0.30;0.30;;;4.30;99.90;;;;;;1928706;73;21558;-72
2021/03/14 00:20:26;;;;;;;0.28;0.28;;;4.30;99.90;;;;;;1922354;73;21138;-73
2021/03/14 00:22:52;;;;;;;0.72;0.30;;;4.40;99.90;;;;;;1919796;73;21055;-73
2021/03/14 00:25:18;;;;;;;0.20;0.20;;;4.40;99.90;;;;;;1915609;73;21074;-73
2021/03/14 00:27:44;;;;;;;0.93;0.20;;;4.50;99.90;;;;;;1894990;74;21101;-73
2021/03/14 00:30:10;;;;;;;0.40;0.40;;;4.50;99.90;;;;;;1921337;73;21579;-73
2021/03/14 00:32:36;;;;;;;0.62;0.30;;;4.50;99.90;;;;;;1907593;73;21586;-74
2021/03/14 00:35:02;;;;;;;2.52;0.53;;;4.30;99.90;;;;;;1922429;73;21583;-74
2021/03/14 00:37:28;;;;;;;0.30;0.30;;;4.30;99.90;;;;;;1911048;73;21047;-73
2021/03/14 00:39:54;;;;;;;0.20;0.20;;;4.40;99.90;;;;;;1893980;75;21096;-74
2021/03/14 00:42:21;;;;;;;0.57;0.33;;;4.40;99.90;;;;;;1928145;73;21110;-73
2021/03/14 00:44:47;;;;;;;2.42;0.45;;;4.40;99.90;;;;;;1920205;73;21090;-73
2021/03/14 00:47:13;;;;;;;0.25;0.20;;;4.50;99.90;;;;;;1921731;73;21140;-73
2021/03/14 00:49:39;;;;;;;0.20;0.20;;;4.50;99.90;;;;;;1882080;74;21163;-73
2021/03/14 00:52:05;;;;;;;1.98;0.37;;;4.40;99.90;;;;;;1913531;73;21139;-72
2021/03/14 00:54:31;;;;;;;0.30;0.30;;;4.40;99.90;;;;;;1916233;73;21086;-73
2021/03/14 00:56:57;;;;;;;0.15;0.15;;;4.40;99.90;;;;;;1883102;74;21085;-72
2021/03/14 00:59:23;;;;;;;4.85;0.28;;;4.40;99.90;;;;;;1907432;73;21078;-72
2021/03/14 01:01:50;;;;;;;0.33;0.20;;;4.40;99.90;;;;;;1880765;75;21090;-72
2021/03/14 01:04:16;;;;;;;0.40;0.40;;;4.40;99.90;;;;;;1921124;73;21510;-72
2021/03/14 01:06:42;;;;;;;1.47;0.45;;;4.40;99.90;;;;;;1883827;74;21625;-72
2021/03/14 01:09:08;;;;;;;0.30;0.30;;;4.40;99.90;;;;;;1919009;73;21690;-72
2021/03/14 01:11:34;;;;;;;0.20;0.20;;;4.40;99.90;;;;;;1906258;73;21082;-73
2021/03/14 01:14:00;;;;;;;0.30;0.25;;;4.30;99.90;;;;;;1912956;73;21043;-72
2021/03/14 01:16:26;;;;;;;0.10;0.10;;;4.40;99.90;;;;;;1883782;74;21093;-72
2021/03/14 01:18:52;;;;;;;0.20;0.20;;;4.40;99.90;;;;;;1923496;73;21073;-72
2021/03/14 01:21:18;;;;;;;0.17;0.13;;;4.30;99.90;;;;;;1894938;75;21081;-73
2021/03/14 01:23:45;;;;;;;0.65;0.53;;;4.30;99.90;;;;;;1929733;73;21065;-74
2021/03/14 01:26:11;;;;;;;0.10;0.10;;;4.20;99.90;;;;;;1914933;73;21541;-73
2021/03/14 01:28:37;;;;;;;0.25;0.25;;;4.10;99.90;;;;;;1919015;73;21506;-74
2021/03/14 01:31:03;;;;;;;0.10;0.10;;;4.10;99.90;;;;;;1915009;73;21533;-74
2021/03/14 01:33:29;;;;;;;0.10;0.10;;;4.10;99.90;;;;;;1918317;73;21099;-74
2021/03/14 01:35:55;;;;;;;0.10;0.10;;;4.10;99.90;;;;;;1904272;73;21054;-73
2021/03/14 01:38:22;;;;;;;0.13;0.13;;;3.90;99.90;;;;;;1884752;74;21082;-72
2021/03/14 01:40:48;;;;;;;2.55;0.30;;;4.00;99.90;;;;;;1898382;73;21086;-73
2021/03/14 01:43:14;;;;;;;0.20;0.20;;;4.00;99.90;;;;;;1915484;73;21077;-74
2021/03/14 01:45:40;;;;;;;0.25;0.20;;;4.10;99.90;;;;;;1886235;74;21085;-74
2021/03/14 01:48:06;;;;;;;0.68;0.33;;;4.00;99.90;;;;;;1910765;73;21081;-74
2021/03/14 01:50:33;;;;;;;0.10;0.10;;;4.00;99.90;;;;;;1915999;73;21552;-74
2021/03/14 01:52:59;;;;;;;0.10;0.10;;;4.00;99.90;;;;;;1902500;73;21085;-75
2021/03/14 01:55:25;;;;;;;0.10;0.10;;;4.00;99.90;;;;;;1906152;73;21152;-74
2021/03/14 01:57:51;;;;;;;0.20;0.20;;;4.00;99.90;;;;;;1894970;75;21062;-72
2021/03/14 02:00:17;;;;;;;0.68;0.25;;;4.00;99.90;;;;;;1929799;73;21103;-74
2021/03/14 02:02:43;;;;;;;0.35;0.35;;;4.00;99.90;;;;;;1884671;74;21211;-74
2021/03/14 02:05:09;;;;;;;0.17;0.17;;;3.90;99.90;;;;;;1928102;74;21146;-74
2021/03/14 02:07:36;;;;;;;0.57;0.25;;;3.90;99.90;;;;;;1906620;73;21147;-74
2021/03/14 02:10:02;;;;;;;0.10;0.10;;;4.10;99.90;;;;;;1906846;73;21136;-74
2021/03/14 02:12:28;;;;;;;0.30;0.30;;;4.00;99.90;;;;;;1921096;73;21085;-75
2021/03/14 02:14:54;;;;;;;0.10;0.10;;;3.90;99.90;;;;;;1915964;73;21117;-74
2021/03/14 02:17:20;;;;;;;0.60;0.20;;;4.00;99.90;;;;;;1890567;74;21110;-73
2021/03/14 02:19:46;;;;;;;0.37;0.33;;;4.00;99.90;;;;;;1929680;73;21575;-72
2021/03/14 02:22:12;;;;;;;0.40;0.30;;;4.00;99.90;;;;;;1881538;74;21512;-72
2021/03/14 02:24:38;;;;;;;0.23;0.23;;;4.00;99.90;;;;;;1916339;73;21505;-72
2021/03/14 02:27:05;;;;;;;0.20;0.20;;;4.00;99.90;;;;;;1918035;73;21085;-72
2021/03/14 02:29:31;;;;;;;0.55;0.20;;;4.00;99.90;;;;;;1907910;73;21150;-72
2021/03/14 02:31:57;;;;;;;0.10;0.10;;;4.10;99.90;;;;;;1888866;74;21207;-73
2021/03/14 02:34:23;;;;;;;0.13;0.13;;;4.00;99.90;;;;;;1928296;73;21106;-72
2021/03/14 02:36:49;;;;;;;0.10;0.10;;;4.00;99.90;;;;;;1914416;73;21151;-72
2021/03/14 02:39:15;;;;;;;0.20;0.20;;;4.00;99.90;;;;;;1915176;73;21079;-73
2021/03/14 02:41:41;;;;;;;0.10;0.10;;;4.10;99.90;;;;;;1886245;74;21063;-72
2021/03/14 02:44:07;;;;;;;0.00;0.00;;;4.10;99.90;;;;;;1922265;73;21074;-72
2021/03/14 02:46:34;;;;;;;0.62;0.37;;;4.00;99.90;;;;;;1916568;73;21093;-72
2021/03/14 02:49:00;;;;;;;0.10;0.10;;;4.10;99.90;;;;;;1895061;75;21118;-72
2021/03/14 02:51:26;;;;;;;0.10;0.10;;;4.00;99.90;;;;;;1922485;74;21081;-73
2021/03/14 02:53:52;;;;;;;0.20;0.20;;;4.00;99.90;;;;;;1887847;74;21097;-72
2021/03/14 02:56:18;;;;;;;0.13;0.13;;;4.10;99.90;;;;;;1927825;73;21105;-72
2021/03/14 02:58:44;;;;;;;0.20;0.20;;;4.10;99.90;;;;;;1920214;73;21541;-72
2021/03/14 03:01:10;;;;;;;0.10;0.10;;;4.00;99.90;;;;;;1878636;74;21101;-72
2021/03/14 03:03:36;;;;;;;0.10;0.10;;;4.10;99.90;;;;;;1918323;73;21046;-72
2021/03/14 03:06:03;;;;;;;0.42;0.20;;;4.10;99.90;;;;;;1893797;75;21225;-72
2021/03/14 03:08:29;;;;;;;0.10;0.10;;;4.00;99.90;;;;;;1929004;74;21228;-72
2021/03/14 03:10:55;;;;;;;0.65;0.30;;;4.00;99.90;;;;;;1911713;73;21151;-72
2021/03/14 03:13:22;;;;;;;1.07;0.30;;;4.00;99.90;;;;;;1881938;74;21152;-72
2021/03/14 03:15:48;;;;;;;0.47;0.20;;;4.00;99.90;;;;;;1906567;73;21155;-73
2021/03/14 03:18:15;;;;;;;0.10;0.10;;;3.90;99.90;;;;;;1917493;73;21085;-72
2021/03/14 03:20:41;;;;;;;0.30;0.30;;;3.90;99.90;;;;;;1881955;74;21160;-72
2021/03/14 03:23:07;;;;;;;0.15;0.10;;;3.90;99.90;;;;;;1903381;73;21050;-72
2021/03/14 03:25:33;;;;;;;0.20;0.20;;;3.90;99.90;;;;;;1915128;73;21076;-72
2021/03/14 03:27:59;;;;;;;1.07;0.42;;;3.90;99.90;;;;;;1914139;73;21151;-72
2021/03/14 03:30:25;;;;;;;0.10;0.10;;;3.90;99.90;;;;;;1913691;73;21082;-73
2021/03/14 03:32:51;;;;;;;0.10;0.10;;;3.90;99.90;;;;;;1909039;73;21077;-73
2021/03/14 03:35:17;;;;;;;0.10;0.10;;;3.90;99.90;;;;;;1908091;73;21090;-73
2021/03/14 03:37:44;;;;;;;0.10;0.10;;;3.90;99.90;;;;;;1894905;76;21167;-73
2021/03/14 03:40:10;;;;;;;0.20;0.20;;;3.80;99.90;;;;;;1920009;73;21047;-73
2021/03/14 03:42:36;;;;;;;0.20;0.20;;;3.80;99.90;;;;;;1911295;73;21474;-73
2021/03/14 03:45:02;;;;;;;1.05;0.30;;;3.90;99.90;;;;;;1886628;75;21564;-73
2021/03/14 03:47:28;;;;;;;0.53;0.33;;;3.80;99.90;;;;;;1924687;73;21118;-72
2021/03/14 03:49:54;;;;;;;0.10;0.10;;;3.70;99.90;;;;;;1898378;73;21085;-73
2021/03/14 03:52:20;;;;;;;0.10;0.10;;;3.80;99.90;;;;;;1906559;73;21148;-73
2021/03/14 03:54:46;;;;;;;0.42;0.20;;;3.80;99.90;;;;;;1906597;73;21085;-72
2021/03/14 03:57:13;;;;;;;0.20;0.20;;;3.80;99.90;;;;;;1911731;73;21130;-73
2021/03/14 03:59:39;;;;;;;0.30;0.30;;;3.70;99.90;;;;;;1922038;73;21159;-73
2021/03/14 04:02:05;;;;;;;0.10;0.10;;;3.70;99.90;;;;;;1895032;75;21167;-73
2021/03/14 04:04:31;;;;;;;0.23;0.23;;;3.80;99.90;;;;;;1929746;74;21842;-73
2021/03/14 04:06:57;;;;;;;0.35;0.23;;;3.70;99.90;;;;;;1881741;74;21541;-73
2021/03/14 04:09:23;;;;;;;0.37;0.30;;;3.70;99.90;;;;;;1910672;73;21559;-73
2021/03/14 04:11:49;;;;;;;1.35;0.30;;;3.70;99.90;;;;;;1926422;73;21077;-73
2021/03/14 04:14:15;;;;;;;0.20;0.20;;;3.70;99.90;;;;;;1920036;73;21151;-73
2021/03/14 04:16:41;;;;;;;2.47;0.20;;;3.70;99.90;;;;;;1906558;73;21077;-73
2021/03/14 04:19:08;;;;;;;0.20;0.13;;;3.70;99.90;;;;;;1926804;73;21449;-73
2021/03/14 04:21:34;;;;;;;0.20;0.20;;;3.80;99.90;;;;;;1893445;74;21102;-73
2021/03/14 04:24:00;;;;;;;1.75;0.30;;;3.80;99.90;;;;;;1913504;73;21081;-73
2021/03/14 04:26:26;;;;;;;0.10;0.10;;;3.80;99.90;;;;;;1887670;75;21213;-73
2021/03/14 04:28:52;;;;;;;0.23;0.17;;;3.80;99.90;;;;;;1926158;73;21081;-73
2021/03/14 04:31:18;;;;;;;0.10;0.10;;;3.60;99.90;;;;;;1912114;73;21575;-73
2021/03/14 04:33:45;;;;;;;0.10;0.10;;;3.60;99.90;;;;;;1891316;75;21098;-73
2021/03/14 04:36:11;;;;;;;0.15;0.15;;;3.80;99.90;;;;;;1920962;74;21085;-73
2021/03/14 04:38:37;;;;;;;0.10;0.10;;;3.80;99.90;;;;;;1893816;75;21164;-72
2021/03/14 04:41:03;;;;;;;0.20;0.20;;;3.70;99.90;;;;;;1921221;73;21086;-73
2021/03/14 04:43:29;;;;;;;0.15;0.13;;;3.70;99.90;;;;;;1914069;73;21054;-74
2021/03/14 04:45:55;;;;;;;0.20;0.20;;;3.70;99.90;;;;;;1885248;74;21086;-73
2021/03/14 04:48:21;;;;;;;0.25;0.10;;;3.60;99.90;;;;;;1917078;73;21082;-73
2021/03/14 04:50:47;;;;;;;0.30;0.20;;;3.60;99.90;;;;;;1906552;73;21074;-73
2021/03/14 04:53:14;;;;;;;1.07;0.30;;;3.60;99.90;;;;;;1920718;73;21082;-73
2021/03/14 04:55:40;;;;;;;1.35;0.17;;;3.60;99.90;;;;;;1915747;73;21081;-73
2021/03/14 04:58:06;;;;;;;0.20;0.20;;;3.70;99.90;;;;;;1914345;73;21155;-74
2021/03/14 05:00:32;;;;;;;0.20;0.20;;;3.70;99.90;;;;;;1901271;73;21458;-73
2021/03/14 05:02:58;;;;;;;0.20;0.20;;;3.70;99.90;;;;;;1926113;73;21525;-72
2021/03/14 05:05:24;;;;;;;0.20;0.20;;;3.80;99.90;;;;;;1884726;75;21599;-72
2021/03/14 05:07:50;;;;;;;0.53;0.30;;;3.80;99.90;;;;;;1902690;73;21199;-73
2021/03/14 05:10:16;;;;;;;0.25;0.25;;;3.80;99.90;;;;;;1919514;73;21077;-73
2021/03/14 05:12:43;;;;;;;0.40;0.15;;;3.80;99.90;;;;;;1907839;73;21099;-73
2021/03/14 05:15:09;;;;;;;0.20;0.20;;;3.80;99.90;;;;;;1894922;75;21157;-73
2021/03/14 05:17:35;;;;;;;0.47;0.47;;;3.70;99.90;;;;;;1928866;73;21094;-73
2021/03/14 05:20:01;;;;;;;0.40;0.40;;;3.70;99.90;;;;;;1923956;73;21078;-73
2021/03/14 05:22:30;;;;;;;0.28;0.28;;;3.70;99.90;;;;;;1918665;73;21082;-73
2021/03/14 05:24:56;;;;;;;0.30;0.30;;;3.70;99.90;;;;;;1894009;74;21086;-74
2021/03/14 05:27:22;;;;;;;0.28;0.28;;;3.70;99.90;;;;;;1929735;73;21118;-73
2021/03/14 05:29:49;;;;;;;0.10;0.10;;;3.60;99.90;;;;;;1886339;74;21089;-73
2021/03/14 05:32:15;;;;;;;1.15;0.53;;;3.60;99.90;;;;;;1923738;73;21505;-73
2021/03/14 05:34:41;;;;;;;1.92;0.30;;;3.70;99.90;;;;;;1916436;73;21534;-74
2021/03/14 05:37:07;;;;;;;1.07;0.20;;;3.60;99.90;;;;;;1895004;76;21517;-73
2021/03/14 05:39:33;;;;;;;0.65;0.37;;;3.60;99.90;;;;;;1921098;73;21119;-73
2021/03/14 05:41:59;;;;;;;0.98;0.50;;;3.60;99.90;;;;;;1898472;73;21051;-73
2021/03/14 05:44:25;;;;;;;0.35;0.35;;;3.50;99.90;;;;;;1908913;73;21072;-73
2021/03/14 05:46:51;;;;;;;0.35;0.35;;;3.40;99.90;;;;;;1924017;73;21119;-73
2021/03/14 05:49:18;;;;;;;0.30;0.30;;;3.40;99.90;;;;;;1901889;73;21163;-74
2021/03/14 05:51:44;;;;;;;0.20;0.20;;;3.40;99.90;;;;;;1888708;74;21202;-74
2021/03/14 05:54:10;;;;;;;1.35;0.20;;;3.40;99.90;;;;;;1928738;73;21565;-72
2021/03/14 05:56:36;;;;;;;0.15;0.15;;;3.40;99.90;;;;;;1892495;75;21159;-72
2021/03/14 05:59:02;;;;;;;1.67;0.50;;;3.40;99.90;;;;;;1917773;73;21078;-72
2021/03/14 06:01:29;;;;;;;0.20;0.20;;;3.40;99.90;;;;;;1887359;75;21192;-72
2021/03/14 06:03:56;;;;;;;0.20;0.20;;;3.50;99.90;;;;;;1918162;73;21563;-76
2021/03/14 06:06:22;;;;;;;0.30;0.30;;;3.40;99.90;;;;;;1912382;73;21038;-77
2021/03/14 06:08:48;;;;;;;2.05;0.30;;;3.40;99.90;;;;;;1888452;74;21055;-75
2021/03/14 06:11:14;;;;;;;0.17;0.17;;;3.50;99.90;;;;;;1916528;73;21250;-75
2021/03/14 06:13:40;;;;;;;0.85;0.30;;;3.60;99.90;;;;;;1920749;73;21152;-77
2021/03/14 06:16:07;;;;;;;0.25;0.23;;;3.70;99.90;;;;;;1905494;73;21102;-75
2021/03/14 06:18:33;;;;;;;0.62;0.30;;;3.80;99.90;;;;;;1924974;73;21532;-76
2021/03/14 06:20:59;;;;;;;0.30;0.30;;;3.80;99.90;;;;;;1895108;75;21559;-76
2021/03/14 06:23:25;;;;;;;0.40;0.30;;;3.70;99.90;;;;;;1921779;73;21429;-76
2021/03/14 06:25:51;;;;;;;0.40;0.40;;;3.70;99.90;;;;;;1920099;73;21070;-74
2021/03/14 06:28:17;;;;;;;0.88;0.37;;;3.80;99.90;;;;;;1883390;74;21085;-87
2021/03/14 06:30:44;;;;;;;1.10;0.33;;;3.90;99.90;;;;;;1920854;73;21070;-87
2021/03/14 06:33:11;;;;;;;0.50;0.40;;;3.90;99.90;;;;;;1880589;74;21095;-86
2021/03/14 06:35:40;;;;;;;0.30;0.30;;;3.90;99.90;;;;;;1916015;73;21135;-86
2021/03/14 06:38:05;;;;;;;1.27;0.47;;;3.90;99.90;;;;;;1916927;73;21114;-84
2021/03/14 06:40:36;;;;;;;0.30;0.20;;;3.90;99.90;;;;;;1902138;73;21042;-83
2021/03/14 06:42:59;;;;;;;0.28;0.28;;;4.00;99.90;;;;;;1911691;73;21435;-80
2021/03/14 06:45:27;;;;;;;0.17;0.17;;;4.10;99.90;;;;;;1906145;73;21473;-77
2021/03/14 06:47:53;;;;;;;0.80;0.30;;;4.20;99.90;;;;;;1924338;73;21093;-76
2021/03/14 06:50:19;;;;;;;1.27;0.75;;;4.20;99.90;;;;;;1911140;73;21482;-77
2021/03/14 06:52:45;;;;;;;0.90;0.40;;;4.20;99.90;;;;;;1912287;73;21513;-84
2021/03/14 06:55:11;;;;;;;1.10;0.40;;;4.30;99.90;;;;;;1875490;74;21077;-77
2021/03/14 06:57:37;;;;;;;0.37;0.37;;;4.30;99.90;;;;;;1905337;73;21059;-76
2021/03/14 07:00:03;;;;;;;2.02;0.50;;;4.40;99.90;;;;;;1928091;73;21203;-76
2021/03/14 07:02:30;;;;;;;2.75;0.40;;;4.40;99.90;;;;;;1895913;75;21207;-77
2021/03/14 07:04:56;;;;;;;1.00;0.53;;;4.50;99.90;;;;;;1887062;75;21201;-76
2021/03/14 07:07:25;;;;;;;0.33;0.33;;;4.50;99.90;;;;;;1894614;75;21094;-76
2021/03/14 07:09:51;;;;;;;3.17;0.70;;;4.50;99.90;;;;;;1888414;74;21063;-75
2021/03/14 07:12:17;;;;;;;1.57;0.50;;;4.40;99.90;;;;;;1887695;74;21094;-75
2021/03/14 07:14:44;;;;;;;0.50;0.47;;;4.50;99.90;;;;;;1882915;74;21134;-75
2021/03/14 07:17:10;;;;;;;3.65;0.90;;;4.60;99.90;;;;;;1891107;74;21098;-74
2021/03/14 07:19:36;;;;;;;2.77;0.50;;;4.60;99.90;;;;;;1884919;75;21592;-75
2021/03/14 07:22:02;;;;;;;0.57;0.47;;;4.60;99.90;;;;;;1899962;74;21094;-76
2021/03/14 07:24:29;;;;;;;0.50;0.50;;;4.80;99.90;;;;;;1891953;74;21140;-76
2021/03/14 07:26:56;;;;;;;0.72;0.50;;;4.90;99.90;;;;;;1897677;75;21172;-77
2021/03/14 07:29:22;;;;;;;1.95;0.70;;;4.90;99.90;;;;;;1901449;75;21150;-77
2021/03/14 07:31:48;;;;;;;2.37;0.35;;;5.00;99.90;;;;;;1898176;75;21093;-75
2021/03/14 07:34:14;;;;;;;0.30;0.30;;;5.10;99.90;;;;;;1897862;74;21088;-76
2021/03/14 07:36:40;;;;;;;8.73;0.65;;;5.10;99.90;;;;;;1897085;75;21062;-77
2021/03/14 07:39:07;;;;;;;1.22;0.60;;;5.20;99.90;;;;;;1901843;75;21163;-76
2021/03/14 07:41:33;;;;;;;2.52;0.55;;;5.30;99.90;;;;;;1901677;74;21074;-77
2021/03/14 07:43:59;;;;;;;7.42;0.90;;;5.20;99.90;;;;;;1895292;75;21055;-76
2021/03/14 07:46:25;;;;;;;1.55;0.95;;;5.30;99.90;;;;;;1899764;74;21168;-77
2021/03/14 07:48:51;;;;;;;2.35;0.62;;;5.40;99.90;;;;;;1896732;75;21112;-75
2021/03/14 07:51:17;;;;;;;4.45;0.90;;;5.60;99.90;;;;;;1892208;74;21094;-76
2021/03/14 07:53:43;;;;;;;1.65;0.50;;;5.60;99.90;;;;;;1897710;74;21203;-75
2021/03/14 07:56:10;;;;;;;2.15;0.50;;;5.80;99.90;;;;;;1886017;75;21160;-75
2021/03/14 07:58:38;;;;;;;1.47;0.57;;;5.60;99.90;;;;;;1888010;75;21139;-76
2021/03/14 08:01:03;;;;;;;1.10;0.70;;;5.70;99.90;;;;;;1893852;75;21535;-76
2021/03/14 08:03:30;;;;;;;0.88;0.40;;;6.00;99.90;;;;;;1896513;75;21682;-75
2021/03/14 08:05:56;;;;;;;2.75;0.53;;;6.00;99.90;;;;;;1893641;75;21094;-77
2021/03/14 08:08:24;;;;;;;0.60;0.60;;;5.90;99.90;;;;;;1888138;75;21055;-76
2021/03/14 08:10:50;;;;;;;3.15;0.80;;;5.90;99.90;;;;;;1882772;75;21593;-74
2021/03/14 08:13:16;;;;;;;4.53;0.50;;;5.70;99.90;;;;;;1888003;74;21632;-75
2021/03/14 08:15:42;;;;;;;0.98;0.42;;;5.70;99.90;;;;;;1888976;75;21517;-74
2021/03/14 08:18:08;;;;;;;3.80;0.85;;;5.50;99.90;;;;;;1894998;75;21489;-76
2021/03/14 08:20:34;;;;;;;0.35;0.35;;;5.50;99.90;;;;;;1897663;74;21223;-76
2021/03/14 08:23:02;;;;;;;2.65;0.70;;;5.30;99.90;;;;;;1900527;74;21082;-74
2021/03/14 08:25:28;;;;;;;9.53;0.90;;;5.30;99.90;;;;;;1890513;75;21094;-74
2021/03/14 08:27:56;;;;;;;0.78;0.60;;;5.40;99.90;;;;;;1893767;75;21094;-73
2021/03/14 08:30:22;;;;;;;3.35;0.80;;;5.40;99.90;;;;;;1894322;74;21439;-80
2021/03/14 08:32:48;;;;;;;2.30;0.70;;;5.60;99.90;;;;;;1900926;74;21086;-77
2021/03/14 08:35:14;;;;;;;2.02;0.80;;;5.60;99.90;;;;;;1901485;75;21140;-76
2021/03/14 08:37:40;;;;;;;2.50;0.85;;;5.60;99.90;;;;;;1896954;75;21152;-77
2021/03/14 08:40:06;;;;;;;2.42;0.47;;;5.80;99.90;;;;;;1902031;75;21148;-78
2021/03/14 08:42:34;;;;;;;0.82;0.50;;;5.90;99.90;;;;;;1895128;75;21058;-80
2021/03/14 08:45:00;;;;;;;1.20;0.42;;;5.90;99.90;;;;;;1885867;75;21547;-82
2021/03/14 08:47:26;;;;;;;3.25;0.53;;;6.00;99.90;;;;;;1894684;75;21152;-78
2021/03/14 08:49:53;;;;;;;1.62;0.60;;;6.20;99.90;;;;;;1893888;75;21089;-80
2021/03/14 08:52:20;;;;;;;0.53;0.35;;;6.60;99.90;;;;;;1894515;75;21181;-79
2021/03/14 08:54:48;;;;;;;1.07;0.37;;;6.80;99.90;;;;;;1892365;74;21163;-80
2021/03/14 08:57:14;;;;;;;5.00;0.90;;;6.50;99.90;;;;;;1901873;75;21622;-78
2021/03/14 08:59:40;;;;;;;2.67;0.82;;;6.40;99.90;;;;;;1895312;74;21580;-80
2021/03/14 09:02:06;;;;;;;1.37;0.50;;;6.40;99.90;;;;;;1898033;75;21509;-78
2021/03/14 09:04:32;;;;;;;4.47;0.65;;;6.40;99.90;;;;;;1902381;74;21140;-78
2021/03/14 09:06:58;;;;;;;1.07;0.53;;;6.20;99.90;;;;;;1901782;75;21159;-78
2021/03/14 09:09:25;;;;;;;0.53;0.40;;;6.10;99.90;;;;;;1893847;74;21094;-77
2021/03/14 09:11:52;;;;;;;2.17;0.70;;;6.10;99.90;;;;;;1890361;74;21085;-79
2021/03/14 09:14:18;;;;;;;1.75;0.40;;;6.10;99.90;;;;;;1900105;74;21094;-78
2021/03/14 09:16:44;;;;;;;3.05;0.70;;;6.10;99.90;;;;;;1894546;74;21163;-78
2021/03/14 09:19:10;;;;;;;1.67;0.78;;;6.30;99.90;;;;;;1899146;74;21086;-75
2021/03/14 09:21:37;;;;;;;2.92;0.90;;;6.20;99.90;;;;;;1897512;74;21086;-77
2021/03/14 09:24:03;;;;;;;2.05;0.88;;;6.20;99.90;;;;;;1890519;75;21155;-78
2021/03/14 09:26:29;;;;;;;1.92;0.78;;;6.20;99.90;;;;;;1898300;74;21164;-75
2021/03/14 09:28:55;;;;;;;1.72;0.68;;;6.20;99.90;;;;;;1889458;74;21193;-75
2021/03/14 09:31:21;;;;;;;1.07;0.53;;;6.10;99.90;;;;;;1901897;75;21054;-75
2021/03/14 09:33:47;;;;;;;0.68;0.33;;;6.20;99.90;;;;;;1898946;74;21232;-75
2021/03/14 09:36:13;;;;;;;2.17;0.88;;;6.30;99.90;;;;;;1898844;74;21093;-76
2021/03/14 09:38:39;;;;;;;1.98;0.90;;;6.20;99.90;;;;;;1897495;75;21090;-78
2021/03/14 09:41:06;;;;;;;1.42;0.50;;;6.20;99.90;;;;;;1903437;74;21513;-78
2021/03/14 09:43:32;;;;;;;0.62;0.30;;;6.10;99.90;;;;;;1891275;74;21114;-76
2021/03/14 09:46:00;;;;;;;3.77;0.53;;;6.10;99.90;;;;;;1896557;75;21868;-77
2021/03/14 09:48:26;;;;;;;2.12;0.75;;;6.20;99.90;;;;;;1902306;75;21086;-78
2021/03/14 09:50:52;;;;;;;1.75;0.60;;;6.40;99.90;;;;;;1895392;75;21097;-76
2021/03/14 09:53:18;;;;;;;0.82;0.45;;;6.70;99.90;;;;;;1901758;75;21220;-76
2021/03/14 09:55:44;;;;;;;2.37;0.80;;;6.80;99.90;;;;;;1902462;75;21098;-76
2021/03/14 09:58:10;;;;;;;1.27;0.62;;;6.70;99.90;;;;;;1902311;74;21089;-76
2021/03/14 10:00:36;;;;;;;1.35;0.50;;;6.70;99.90;;;;;;1897606;74;21101;-75
2021/03/14 10:03:02;;;;;;;0.72;0.40;;;6.70;99.90;;;;;;1888159;75;21279;-77
2021/03/14 10:05:29;;;;;;;0.50;0.40;;;7.10;99.90;;;;;;1898569;74;21062;-76
2021/03/14 10:07:55;;;;;;;1.50;0.42;;;7.40;99.90;;;;;;1892214;75;21477;-76
2021/03/14 10:10:21;;;;;;;0.37;0.30;;;7.40;99.90;;;;;;1902518;74;21559;-76
2021/03/14 10:12:47;;;;;;;2.58;0.60;;;7.20;99.90;;;;;;1892292;75;21161;-75
2021/03/14 10:15:13;;;;;;;3.25;0.47;;;7.00;99.90;;;;;;1900435;74;21097;-76
2021/03/14 10:17:39;;;;;;;1.22;0.28;;;6.80;99.90;;;;;;1901573;74;21159;-76
2021/03/14 10:20:05;;;;;;;1.80;0.42;;;6.70;99.90;;;;;;1900348;74;21156;-76
2021/03/14 10:22:32;;;;;;;0.88;0.30;;;6.90;99.90;;;;;;1902882;74;21567;-78
2021/03/14 10:24:58;;;;;;;0.60;0.40;;;7.00;99.90;;;;;;1900952;75;21431;-77
2021/03/14 10:27:24;;;;;;;2.35;0.78;;;7.20;99.90;;;;;;1902086;74;21203;-78
2021/03/14 10:29:50;;;;;;;0.60;0.30;;;7.20;99.90;;;;;;1902307;74;21085;-77
2021/03/14 10:32:16;;;;;;;0.40;0.40;;;6.90;99.90;;;;;;1894249;75;21086;-77
2021/03/14 10:34:42;;;;;;;0.33;0.23;;;6.80;99.90;;;;;;1897032;74;22502;-77
2021/03/14 10:37:08;;;;;;;0.75;0.50;;;6.80;99.90;;;;;;1891159;75;21224;-77
2021/03/14 10:39:34;;;;;;;0.80;0.23;;;7.00;99.90;;;;;;1888010;75;21159;-77
2021/03/14 10:42:01;;;;;;;3.20;0.33;;;7.20;99.90;;;;;;1899953;74;21051;-77
2021/03/14 10:44:27;;;;;;;0.50;0.47;;;7.10;99.90;;;;;;1891096;75;21094;-78
2021/03/14 10:46:53;;;;;;;4.25;0.35;;;7.00;99.90;;;;;;1898186;74;21093;-79
2021/03/14 10:49:20;;;;;;;3.77;0.60;;;7.30;99.90;;;;;;1901897;74;21179;-77
2021/03/14 10:51:46;;;;;;;1.02;0.42;;;7.60;99.90;;;;;;1895358;75;21167;-77
2021/03/14 10:54:12;;;;;;;1.07;0.50;;;8.00;99.90;;;;;;1902773;74;21085;-77
2021/03/14 10:56:39;;;;;;;0.75;0.53;;;8.50;99.90;;;;;;1898770;74;21509;-77
2021/03/14 10:59:05;;;;;;;0.40;0.40;;;8.80;99.90;;;;;;1902364;74;21097;-77
2021/03/14 11:01:39;;;;;;;0.37;0.20;;;8.70;99.90;;;;;;1887361;75;21161;-77
2021/03/14 11:04:05;;;;;;;0.80;0.25;;;8.50;99.90;;;;;;1893654;75;21157;-77
2021/03/14 11:06:31;;;;;;;0.62;0.28;;;8.10;99.90;;;;;;1901728;74;21160;-77
2021/03/14 11:08:57;;;;;;;2.20;0.57;;;7.80;99.90;;;;;;1902453;74;21062;-77
2021/03/14 11:11:26;;;;;;;1.65;0.40;;;7.40;99.90;;;;;;1895362;75;21135;-78
2021/03/14 11:13:51;;;;;;;1.85;1.02;;;7.30;99.90;;;;;;1901938;74;21603;-78
2021/03/14 11:16:17;;;;;;;0.23;0.23;;;7.20;99.90;;;;;;1885758;75;21498;-77
2021/03/14 11:18:43;;;;;;;2.70;0.95;;;7.10;99.90;;;;;;1889483;75;21160;-77
2021/03/14 11:21:09;;;;;;;1.15;0.35;;;7.10;99.90;;;;;;1894572;75;21051;-78
2021/03/14 11:23:35;;;;;;;0.30;0.30;;;7.40;99.90;;;;;;1888941;75;21169;-77
2021/03/14 11:26:01;;;;;;;1.50;0.70;;;7.60;99.90;;;;;;1898784;74;21086;-77
2021/03/14 11:28:28;;;;;;;1.02;0.50;;;7.40;99.90;;;;;;1893571;75;21098;-77
2021/03/14 11:30:55;;;;;;;1.32;0.47;;;7.30;99.90;;;;;;1898605;74;21083;-78
2021/03/14 11:33:21;;;;;;;0.20;0.20;;;7.20;99.90;;;;;;1897662;75;21600;-77
2021/03/14 11:35:47;;;;;;;1.47;0.78;;;7.10;99.90;;;;;;1893585;75;21055;-77
2021/03/14 11:38:13;;;;;;;3.20;0.60;;;7.20;99.90;;;;;;1891991;74;21168;-76
2021/03/14 11:40:40;;;;;;;4.85;0.60;;;7.30;99.90;;;;;;1887565;75;21214;-77
2021/03/14 11:43:06;;;;;;;1.52;0.55;;;7.50;99.90;;;;;;1886133;75;21168;-77
2021/03/14 11:45:32;;;;;;;1.02;0.72;;;7.80;99.90;;;;;;1891407;75;21222;-79
2021/03/14 11:47:58;;;;;;;1.12;0.50;;;7.90;99.90;;;;;;1887999;75;21066;-78
2021/03/14 11:50:25;;;;;;;1.20;0.60;;;8.00;99.90;;;;;;1897379;74;21104;-78
2021/03/14 11:52:52;;;;;;;4.47;0.62;;;8.10;99.90;;;;;;1898936;75;21082;-78
2021/03/14 11:55:18;;;;;;;2.95;0.95;;;8.00;99.90;;;;;;1889125;75;21086;-76
2021/03/14 11:57:44;;;;;;;3.40;0.60;;;7.80;99.90;;;;;;1889773;75;21093;-77
2021/03/14 12:00:10;;;;;;;0.37;0.37;;;7.80;99.90;;;;;;1892778;75;21081;-77
2021/03/14 12:02:36;;;;;;;2.30;0.95;;;8.00;99.90;;;;;;1900580;75;21047;-76
2021/03/14 12:05:02;;;;;;;2.10;0.80;;;7.90;99.90;;;;;;1899249;75;21314;-78
2021/03/14 12:07:28;;;;;;;1.60;0.40;;;7.90;99.90;;;;;;1892575;75;21090;-77
2021/03/14 12:09:54;;;;;;;2.52;0.68;;;7.90;99.90;;;;;;1903423;75;21529;-77
2021/03/14 12:12:21;;;;;;;0.40;0.40;;;7.70;99.90;;;;;;1884506;75;21474;-77
2021/03/14 12:14:47;;;;;;;0.55;0.42;;;7.70;99.90;;;;;;1889508;74;21082;-79
2021/03/14 12:17:13;;;;;;;1.67;0.62;;;7.80;99.90;;;;;;1889342;75;21090;-78
2021/03/14 12:19:39;;;;;;;1.75;0.40;;;8.00;99.90;;;;;;1889978;75;21058;-79
2021/03/14 12:22:05;;;;;;;0.68;0.30;;;8.00;99.90;;;;;;1898890;75;21144;-77
2021/03/14 12:24:31;;;;;;;2.25;0.47;;;7.70;99.90;;;;;;1899083;74;21156;-77
2021/03/14 12:26:57;;;;;;;1.75;0.50;;;7.60;99.90;;;;;;1895903;75;21082;-78
2021/03/14 12:29:23;;;;;;;2.90;0.47;;;7.50;99.90;;;;;;1893749;74;21085;-79
2021/03/14 12:31:50;;;;;;;1.87;0.55;;;7.30;99.90;;;;;;1901547;75;21086;-77
2021/03/14 12:34:16;;;;;;;2.42;1.15;;;7.20;99.90;;;;;;1897192;75;21108;-78
2021/03/14 12:36:42;;;;;;;0.50;0.45;;;7.10;99.90;;;;;;1894104;75;21087;-77
2021/03/14 12:39:08;;;;;;;2.58;0.50;;;7.10;99.90;;;;;;1888703;75;21082;-77
2021/03/14 12:41:34;;;;;;;0.72;0.50;;;6.80;99.90;;;;;;1899185;75;21654;-78
2021/03/14 12:44:00;;;;;;;2.80;1.07;;;6.60;99.90;;;;;;1889448;75;21159;-78
2021/03/14 12:46:26;;;;;;;0.88;0.50;;;6.70;99.90;;;;;;1894359;75;21089;-78
2021/03/14 12:48:52;;;;;;;3.58;0.60;;;6.80;99.90;;;;;;1902827;75;21153;-78
2021/03/14 12:51:19;;;;;;;2.25;0.53;;;6.70;99.90;;;;;;1896463;74;21058;-77